createdAt,value
2022-11-13T00:00:53.353Z,1.80
2022-11-13T00:02:13.895Z,0.90
2022-11-13T00:03:34.575Z,2.00
2022-11-13T00:04:56.123Z,1.00
2022-11-13T00:06:18.650Z,0.80
2022-11-13T00:07:39.460Z,1.90
2022-11-13T00:08:59.923Z,1.50
2022-11-13T00:10:20.480Z,2.00
2022-11-13T00:11:41.021Z,2.00
2022-11-13T00:13:01.873Z,2.50
2022-11-13T00:14:22.317Z,2.10
2022-11-13T00:15:42.906Z,2.20
2022-11-13T00:17:03.925Z,2.70
2022-11-13T00:18:24.250Z,2.50
2022-11-13T00:19:44.629Z,1.60
2022-11-13T00:21:06.844Z,2.00
2022-11-13T00:22:27.255Z,1.70
2022-11-13T00:23:48.398Z,2.30
2022-11-13T00:25:09.339Z,0.00
2022-11-13T00:26:31.124Z,2.30
2022-11-13T00:27:52.019Z,2.10
2022-11-13T00:29:12.361Z,2.40
2022-11-13T00:30:32.964Z,1.80
2022-11-13T00:31:53.599Z,2.20
2022-11-13T00:33:18.900Z,2.30
2022-11-13T00:34:52.055Z,2.30
2022-11-13T00:36:07.045Z,1.80
2022-11-13T00:37:27.672Z,1.90
2022-11-13T00:38:48.683Z,0.80
2022-11-13T00:40:09.964Z,1.30
2022-11-13T00:41:30.042Z,1.80
2022-11-13T00:42:50.588Z,1.50
2022-11-13T00:44:12.202Z,1.50
2022-11-13T00:45:32.960Z,1.80
2022-11-13T00:46:53.451Z,1.90
2022-11-13T00:48:13.971Z,1.80
2022-11-13T00:49:34.584Z,1.30
2022-11-13T00:50:55.408Z,1.80
2022-11-13T00:52:15.504Z,2.00
2022-11-13T00:53:36.806Z,1.00
2022-11-13T00:54:57.290Z,0.90
2022-11-13T00:56:17.990Z,0.60
2022-11-13T00:57:38.220Z,1.00
2022-11-13T00:58:58.829Z,1.00
2022-11-13T01:00:20.839Z,0.00
2022-11-13T01:01:41.611Z,0.50
2022-11-13T01:03:02.120Z,1.20
2022-11-13T01:04:22.524Z,1.40
2022-11-13T01:05:45.326Z,1.00
2022-11-13T01:07:05.819Z,2.00
2022-11-13T01:08:26.883Z,1.00
2022-11-13T01:09:51.217Z,1.00
2022-11-13T01:11:14.690Z,1.00
2022-11-13T01:12:35.720Z,0.60
2022-11-13T01:13:56.570Z,1.00
2022-11-13T01:15:17.300Z,1.00
2022-11-13T01:16:37.867Z,1.00
2022-11-13T01:17:58.490Z,1.10
2022-11-13T01:19:19.514Z,1.00
2022-11-13T01:20:40.335Z,1.00
2022-11-13T01:22:00.874Z,1.10
2022-11-13T01:23:21.455Z,1.00
2022-11-13T01:24:42.122Z,0.90
2022-11-13T01:26:12.158Z,0.60
2022-11-13T01:27:37.424Z,0.90
2022-11-13T01:28:59.982Z,1.00
2022-11-13T01:30:21.016Z,1.00
2022-11-13T01:31:41.582Z,1.30
2022-11-13T01:33:02.254Z,0.80
2022-11-13T01:34:22.751Z,0.90
2022-11-13T01:35:43.758Z,0.90
2022-11-13T01:37:04.294Z,0.80
2022-11-13T01:38:25.081Z,1.00
2022-11-13T01:39:46.675Z,1.20
2022-11-13T01:41:09.932Z,0.90
2022-11-13T01:42:33.079Z,0.60
2022-11-13T01:43:54.853Z,0.90
2022-11-13T01:45:53.205Z,1.00
2022-11-13T01:47:14.611Z,0.80
2022-11-13T01:48:41.781Z,0.00
2022-11-13T01:50:03.000Z,0.50
2022-11-13T01:51:33.393Z,1.00
2022-11-13T01:52:54.445Z,1.00
2022-11-13T01:55:29.109Z,1.00
2022-11-13T01:56:51.055Z,0.30
2022-11-13T01:58:13.215Z,1.00
2022-11-13T01:59:43.012Z,0.70
2022-11-13T02:01:03.628Z,1.20
2022-11-13T02:02:24.254Z,0.80
2022-11-13T02:03:45.716Z,0.60
2022-11-13T02:05:07.676Z,0.90
2022-11-13T02:06:31.721Z,0.70
2022-11-13T02:07:52.093Z,0.70
2022-11-13T02:09:14.616Z,1.00
2022-11-13T02:10:35.038Z,1.60
2022-11-13T02:11:56.084Z,0.90
2022-11-13T02:13:16.958Z,0.20
2022-11-13T02:14:44.225Z,0.00
2022-11-13T02:16:07.816Z,1.00
2022-11-13T02:17:34.547Z,0.70
2022-11-13T02:18:55.148Z,1.00
2022-11-13T02:20:18.911Z,1.00
2022-11-13T02:23:20.517Z,0.60
2022-11-13T02:24:45.599Z,0.50
2022-11-13T02:26:08.290Z,1.00
2022-11-13T02:27:49.297Z,1.00
2022-11-13T02:29:09.823Z,1.00
2022-11-13T02:30:34.221Z,1.00
2022-11-13T02:31:55.409Z,0.30
2022-11-13T02:33:25.210Z,1.00
2022-11-13T02:34:45.822Z,0.60
2022-11-13T02:36:09.777Z,1.00
2022-11-13T02:37:30.447Z,1.00
2022-11-13T02:38:53.499Z,1.00
2022-11-13T02:40:14.453Z,0.50
2022-11-13T02:41:34.872Z,1.00
2022-11-13T02:42:55.331Z,0.20
2022-11-13T02:44:15.967Z,0.60
2022-11-13T02:45:37.012Z,0.80
2022-11-13T02:46:57.589Z,0.00
2022-11-13T02:48:18.439Z,0.00
2022-11-13T02:49:38.765Z,0.10
2022-11-13T02:50:59.781Z,0.00
2022-11-13T02:52:20.200Z,0.70
2022-11-13T02:53:41.424Z,0.90
2022-11-13T02:55:02.596Z,0.40
2022-11-13T05:58:24.407Z,3.40
2022-11-13T05:59:44.803Z,3.40
2022-11-13T06:01:14.647Z,2.50
2022-11-13T06:02:35.447Z,1.50
2022-11-13T06:03:57.794Z,3.00
2022-11-13T06:05:18.099Z,2.70
2022-11-13T06:06:39.351Z,3.00
2022-11-13T06:07:59.755Z,2.60
2022-11-13T06:09:20.618Z,2.30
2022-11-13T06:10:42.091Z,3.60
2022-11-13T06:12:02.638Z,3.40
2022-11-13T06:13:23.343Z,3.70
2022-11-13T06:14:43.932Z,3.00
2022-11-13T06:16:10.229Z,2.80
2022-11-13T06:17:30.874Z,2.00
2022-11-13T06:18:54.700Z,4.90
2022-11-13T06:20:16.115Z,4.40
2022-11-13T06:21:39.471Z,5.10
2022-11-13T06:23:00.201Z,6.10
2022-11-13T06:24:21.006Z,6.90
2022-11-13T06:25:41.703Z,7.30
2022-11-13T06:27:01.886Z,6.20
2022-11-13T06:28:22.423Z,4.20
2022-11-13T06:29:43.160Z,3.00
2022-11-13T06:31:07.559Z,5.00
2022-11-13T06:32:27.700Z,3.00
2022-11-13T06:33:48.242Z,2.90
2022-11-13T06:35:08.877Z,2.70
2022-11-13T06:36:35.256Z,2.40
2022-11-13T06:37:55.469Z,1.70
2022-11-13T06:39:16.090Z,1.40
2022-11-13T06:41:48.919Z,2.60
2022-11-13T06:43:09.654Z,2.00
2022-11-13T06:44:30.720Z,2.00
2022-11-13T06:45:51.222Z,2.40
2022-11-13T06:47:11.883Z,2.00
2022-11-13T06:48:33.172Z,0.00
2022-11-13T06:49:53.522Z,0.60
2022-11-13T06:51:18.610Z,2.80
2022-11-13T06:52:39.169Z,1.90
2022-11-13T06:53:59.839Z,1.80
2022-11-13T06:55:20.405Z,2.50
2022-11-13T06:56:40.778Z,2.70
2022-11-13T06:58:01.489Z,2.20
2022-11-13T06:59:22.635Z,2.90
2022-11-13T07:00:43.893Z,2.40
2022-11-13T07:02:04.806Z,3.10
2022-11-13T07:03:26.494Z,1.90
2022-11-13T07:04:47.406Z,2.00
2022-11-13T07:06:10.692Z,0.80
2022-11-13T07:07:31.094Z,2.00
2022-11-13T07:08:52.034Z,2.20
2022-11-13T07:10:12.252Z,3.20
2022-11-13T07:11:33.058Z,2.00
2022-11-13T07:12:54.893Z,3.20
2022-11-13T07:14:15.673Z,2.90
2022-11-13T07:15:38.740Z,3.70
2022-11-13T07:17:10.914Z,3.90
2022-11-13T07:18:24.479Z,3.40
2022-11-13T07:19:45.231Z,4.90
2022-11-13T07:21:08.624Z,1.70
2022-11-13T07:22:31.404Z,3.60
2022-11-13T07:23:51.933Z,2.10
2022-11-13T07:25:12.428Z,3.10
2022-11-13T07:26:32.830Z,3.00
2022-11-13T07:27:53.575Z,2.80
2022-11-13T07:29:14.364Z,2.90
2022-11-13T07:30:34.801Z,4.00
2022-11-13T07:31:55.463Z,3.10
2022-11-13T07:33:16.021Z,2.80
2022-11-13T07:34:37.005Z,3.90
2022-11-13T07:35:58.615Z,1.50
2022-11-13T07:37:20.070Z,3.10
2022-11-13T07:38:41.173Z,3.90
2022-11-13T07:40:02.737Z,2.30
2022-11-13T07:41:22.932Z,3.30
2022-11-13T07:42:43.466Z,1.60
2022-11-13T07:44:08.815Z,3.40
2022-11-13T07:45:28.374Z,2.30
2022-11-13T07:46:48.790Z,1.90
2022-11-13T07:48:09.897Z,3.60
2022-11-13T07:49:30.626Z,3.10
2022-11-13T07:50:51.098Z,0.80
2022-11-13T07:52:11.609Z,1.90
2022-11-13T07:53:32.365Z,3.80
2022-11-13T07:54:53.313Z,3.40
2022-11-13T07:56:18.860Z,3.00
2022-11-13T07:57:36.721Z,3.90
2022-11-13T07:58:58.594Z,0.70
2022-11-13T08:00:19.324Z,3.70
2022-11-13T08:01:39.739Z,4.50
2022-11-13T08:03:09.501Z,4.30
2022-11-13T08:04:30.394Z,3.70
2022-11-13T08:05:50.624Z,4.40
2022-11-13T08:07:11.950Z,2.00
2022-11-13T08:08:33.672Z,4.00
2022-11-13T08:09:53.945Z,5.00
2022-11-13T08:11:14.863Z,4.00
2022-11-13T08:12:35.298Z,4.70
2022-11-13T08:13:55.701Z,4.40
2022-11-13T08:15:16.432Z,4.80
2022-11-13T08:16:37.013Z,5.90
2022-11-13T08:17:58.966Z,5.40
2022-11-13T08:19:19.197Z,6.40
2022-11-13T08:20:40.217Z,5.40
2022-11-13T08:22:01.828Z,5.70
2022-11-13T08:23:22.887Z,4.00
2022-11-13T08:24:43.528Z,4.20
2022-11-13T08:26:05.778Z,5.60
2022-11-13T08:27:26.645Z,5.20
2022-11-13T08:28:47.607Z,4.70
2022-11-13T08:30:09.572Z,3.90
2022-11-13T08:31:30.381Z,4.50
2022-11-13T08:32:50.852Z,1.20
2022-11-13T08:34:11.416Z,4.80
2022-11-13T08:35:31.702Z,5.30
2022-11-13T08:36:52.351Z,4.20
2022-11-13T08:38:13.305Z,4.70
2022-11-13T08:39:33.737Z,4.50
2022-11-13T08:41:03.246Z,4.20
2022-11-13T08:42:22.328Z,2.40
2022-11-13T08:43:43.036Z,5.20
2022-11-13T08:45:04.523Z,3.20
2022-11-13T08:46:25.339Z,5.10
2022-11-13T08:47:46.853Z,5.40
2022-11-13T08:49:07.544Z,4.80
2022-11-13T08:50:29.183Z,3.40
2022-11-13T08:51:50.424Z,6.80
2022-11-13T08:53:11.228Z,5.50
2022-11-13T08:54:31.384Z,4.50
2022-11-13T08:55:52.075Z,3.30
2022-11-13T08:57:12.401Z,4.20
2022-11-13T08:58:32.991Z,5.10
2022-11-13T08:59:53.824Z,4.10
2022-11-13T09:01:14.406Z,5.80
2022-11-13T09:02:34.742Z,5.50
2022-11-13T09:03:55.516Z,5.50
2022-11-13T09:05:15.979Z,6.00
2022-11-13T09:06:36.308Z,5.70
2022-11-13T09:07:58.752Z,5.80
2022-11-13T09:09:19.858Z,4.50
2022-11-13T09:10:40.225Z,2.40
2022-11-13T09:12:00.891Z,6.10
2022-11-13T09:13:21.733Z,5.20
2022-11-13T09:14:42.412Z,4.00
2022-11-13T09:16:03.068Z,5.20
2022-11-13T09:17:23.426Z,5.90
2022-11-13T09:18:43.740Z,5.90
2022-11-13T09:20:07.675Z,4.90
2022-11-13T09:21:28.279Z,4.80
2022-11-13T09:22:48.891Z,7.80
2022-11-13T09:24:09.809Z,6.80
2022-11-13T09:25:37.070Z,5.80
2022-11-13T09:26:53.656Z,7.00
2022-11-13T09:28:14.300Z,5.60
2022-11-13T09:29:34.809Z,6.10
2022-11-13T09:30:55.525Z,6.10
2022-11-13T09:32:16.209Z,5.90
2022-11-13T09:33:36.894Z,7.70
2022-11-13T09:34:57.683Z,6.60
2022-11-13T09:36:18.212Z,5.80
2022-11-13T09:37:38.678Z,6.50
2022-11-13T09:39:00.000Z,6.40
2022-11-13T09:40:24.874Z,5.10
2022-11-13T09:41:48.905Z,5.00
2022-11-13T09:43:13.206Z,5.60
2022-11-13T09:44:47.340Z,7.10
2022-11-13T09:46:40.970Z,4.70
2022-11-13T09:48:22.345Z,6.00
2022-11-13T09:49:46.822Z,4.40
2022-11-13T09:51:13.782Z,4.50
2022-11-13T09:52:37.660Z,5.90
2022-11-13T09:54:02.734Z,6.90
2022-11-13T09:55:30.525Z,5.50
2022-11-13T09:57:16.108Z,7.00
2022-11-13T09:59:01.007Z,7.30
2022-11-13T10:00:22.580Z,7.40
2022-11-13T10:01:56.129Z,9.20
2022-11-13T10:03:59.875Z,6.60
2022-11-13T10:05:15.995Z,7.60
2022-11-13T10:06:52.309Z,2.20
2022-11-13T10:08:16.839Z,6.30
2022-11-13T10:09:49.705Z,5.40
2022-11-13T10:11:22.470Z,3.50
2022-11-13T10:12:45.616Z,7.10
2022-11-13T10:14:15.587Z,8.10
2022-11-13T10:15:38.631Z,6.20
2022-11-13T10:17:05.438Z,7.90
2022-11-13T10:18:33.302Z,6.50
2022-11-13T10:20:03.053Z,6.00
2022-11-13T10:21:39.440Z,4.50
2022-11-13T10:23:09.530Z,5.40
2022-11-13T10:24:33.342Z,4.30
2022-11-13T10:25:56.221Z,5.70
2022-11-13T10:27:17.058Z,5.50
2022-11-13T10:28:53.996Z,3.90
2022-11-13T10:30:01.646Z,7.30
2022-11-13T10:31:22.082Z,5.80
2022-11-13T10:32:43.571Z,5.50
2022-11-13T10:34:05.260Z,5.90
2022-11-13T10:35:29.627Z,3.70
2022-11-13T10:36:56.534Z,6.40
2022-11-13T10:38:27.570Z,5.30
2022-11-13T10:39:48.416Z,6.20
2022-11-13T10:41:14.992Z,7.00
2022-11-13T10:42:40.600Z,5.30
2022-11-13T10:44:09.604Z,5.20
2022-11-13T10:45:30.883Z,5.90
2022-11-13T10:46:53.691Z,5.10
2022-11-13T10:48:30.687Z,2.50
2022-11-13T10:49:53.137Z,4.00
2022-11-13T10:51:28.748Z,4.60
2022-11-13T10:52:53.753Z,4.00
2022-11-13T10:54:29.434Z,5.60
2022-11-13T10:55:56.031Z,5.20
2022-11-13T10:57:32.079Z,3.80
2022-11-13T10:59:10.531Z,3.10
2022-11-13T11:00:34.607Z,4.90
2022-11-13T11:01:55.495Z,4.70
2022-11-13T11:03:21.432Z,3.90
2022-11-13T11:04:42.118Z,7.40
2022-11-13T11:06:04.576Z,6.00
2022-11-13T11:07:25.542Z,6.20
2022-11-13T11:08:46.952Z,3.70
2022-11-13T11:10:30.220Z,4.80
2022-11-13T11:12:06.707Z,4.10
2022-11-13T11:13:27.587Z,3.50
2022-11-13T11:15:00.549Z,2.60
2022-11-13T11:16:24.296Z,3.60
2022-11-13T11:17:54.281Z,3.80
2022-11-13T11:19:17.163Z,3.70
2022-11-13T11:20:44.202Z,2.80
2022-11-13T11:22:09.279Z,3.40
2022-11-13T11:23:38.307Z,5.40
2022-11-13T11:25:35.194Z,5.00
2022-11-13T11:26:59.588Z,4.90
2022-11-13T11:28:32.633Z,4.70
2022-11-13T11:31:23.614Z,8.00
2022-11-13T11:34:19.149Z,8.00
2022-11-13T11:35:58.075Z,5.20
2022-11-13T11:37:25.251Z,11.70
2022-11-13T11:38:52.882Z,6.00
2022-11-13T11:40:34.348Z,7.40
2022-11-13T11:42:10.272Z,2.30
2022-11-13T11:43:40.053Z,4.90
2022-11-13T11:45:07.106Z,5.30
2022-11-13T11:46:29.144Z,5.70
2022-11-13T11:47:49.951Z,30.40
2022-11-13T11:49:11.106Z,29.10
2022-11-13T11:50:45.835Z,25.40
2022-11-13T11:52:33.959Z,3.60
2022-11-13T11:53:57.816Z,20.10
2022-11-13T11:55:27.524Z,5.60
2022-11-13T11:56:54.471Z,4.20
2022-11-13T11:58:47.590Z,3.80
2022-11-13T12:00:19.567Z,2.50
2022-11-13T12:02:10.766Z,3.30
2022-11-13T12:04:02.512Z,8.40
2022-11-13T12:05:43.287Z,3.80
2022-11-13T12:07:22.942Z,6.30
2022-11-13T14:30:43.593Z,4.20
2022-11-13T14:32:13.949Z,5.30
2022-11-13T14:33:44.256Z,3.90
2022-11-13T14:35:06.189Z,6.40
2022-11-13T14:36:32.490Z,6.30
2022-11-13T14:37:54.401Z,5.70
2022-11-13T14:39:23.903Z,5.70
2022-11-13T14:40:49.359Z,4.50
2022-11-13T14:42:22.927Z,6.20
2022-11-13T14:43:47.807Z,5.70
2022-11-13T14:45:17.839Z,5.20
2022-11-13T14:46:43.889Z,6.00
2022-11-13T14:48:23.173Z,5.40
2022-11-13T14:49:56.899Z,7.20
2022-11-13T14:51:29.595Z,6.90
2022-11-13T14:52:59.408Z,8.00
2022-11-13T14:55:08.000Z,5.30
2022-11-13T14:56:03.028Z,8.70
2022-11-13T14:57:23.216Z,5.50
2022-11-13T14:58:46.399Z,3.70
2022-11-13T15:00:18.757Z,7.20
2022-11-13T15:01:40.037Z,8.50
2022-11-13T15:03:02.106Z,6.60
2022-11-13T15:04:24.261Z,6.80
2022-11-13T15:05:44.593Z,7.20
2022-11-13T15:07:25.878Z,7.10
2022-11-13T15:08:58.371Z,7.70
2022-11-13T15:10:21.561Z,5.70
2022-11-13T15:11:43.501Z,7.40
2022-11-13T15:13:10.790Z,6.20
2022-11-13T15:14:33.174Z,9.20
2022-11-13T15:15:53.901Z,9.30
2022-11-13T15:17:17.771Z,9.60
2022-11-13T15:18:38.431Z,8.90
2022-11-13T15:19:59.373Z,8.90
2022-11-13T15:21:20.232Z,10.20
2022-11-13T15:22:41.321Z,8.70
2022-11-13T15:24:02.188Z,9.10
2022-11-13T15:25:24.680Z,9.50
2022-11-13T15:26:46.336Z,4.70
2022-11-13T15:28:09.712Z,9.70
2022-11-13T15:29:29.763Z,7.20
2022-11-13T15:30:51.486Z,7.20
2022-11-13T15:32:14.862Z,6.30
2022-11-13T15:33:35.347Z,5.80
2022-11-13T15:34:55.671Z,8.30
2022-11-13T15:36:16.675Z,6.20
2022-11-13T15:37:37.217Z,6.20
2022-11-13T15:39:01.328Z,6.40
2022-11-13T15:40:21.172Z,7.10
2022-11-13T15:41:41.640Z,6.70
2022-11-13T15:43:03.408Z,6.50
2022-11-13T15:44:24.046Z,6.00
2022-11-13T15:45:44.687Z,6.00
2022-11-13T15:47:25.525Z,5.40
2022-11-13T15:48:47.371Z,3.10
2022-11-13T15:50:15.511Z,5.50
2022-11-13T15:51:37.961Z,5.10
2022-11-13T15:53:04.848Z,5.70
2022-11-13T15:54:28.341Z,4.70
2022-11-13T15:55:49.057Z,1.80
2022-11-13T15:57:20.930Z,3.60
2022-11-13T15:58:41.857Z,5.20
2022-11-13T16:00:02.977Z,2.00
2022-11-13T16:01:24.164Z,6.60
2022-11-13T16:02:45.530Z,5.60
2022-11-13T16:04:07.342Z,4.30
2022-11-13T16:05:28.194Z,3.80
2022-11-13T16:06:48.764Z,5.20
2022-11-13T16:08:13.329Z,5.90
2022-11-13T16:11:20.437Z,5.30
2022-11-13T16:12:41.897Z,5.50
2022-11-13T16:14:23.413Z,5.40
2022-11-13T16:15:42.396Z,5.10
2022-11-13T16:17:11.881Z,2.50
2022-11-13T16:18:32.246Z,4.40
2022-11-13T16:19:55.573Z,5.20
2022-11-13T16:21:18.021Z,3.00
2022-11-13T16:22:39.454Z,5.30
2022-11-13T16:24:00.386Z,5.70
2022-11-13T16:25:21.711Z,5.30
2022-11-13T16:26:46.402Z,5.50
2022-11-13T16:28:17.374Z,6.00
2022-11-13T16:29:38.149Z,5.60
2022-11-13T16:30:58.731Z,5.10
2022-11-13T16:32:19.335Z,3.80
2022-11-13T16:33:40.333Z,5.90
2022-11-13T16:35:00.767Z,5.60
2022-11-13T16:36:22.018Z,5.60
2022-11-13T16:37:42.333Z,5.00
2022-11-13T16:39:03.681Z,5.70
2022-11-13T16:40:26.190Z,5.90
2022-11-13T16:41:47.780Z,6.20
2022-11-13T16:43:10.623Z,7.10
2022-11-13T16:44:31.822Z,6.30
2022-11-13T16:45:52.578Z,5.00
2022-11-13T16:47:19.255Z,5.90
2022-11-13T16:48:39.855Z,8.00
2022-11-13T16:50:00.700Z,5.30
2022-11-13T16:51:22.091Z,3.60
2022-11-13T16:52:43.714Z,5.80
2022-11-13T16:54:05.414Z,6.50
2022-11-13T16:55:27.084Z,7.70
2022-11-13T16:56:47.848Z,4.20
2022-11-13T16:58:12.757Z,7.20
2022-11-13T16:59:33.598Z,9.10
2022-11-13T17:00:59.779Z,7.20
2022-11-13T17:02:17.834Z,6.90
2022-11-13T17:03:39.750Z,7.00
2022-11-13T17:05:01.331Z,6.70
2022-11-13T17:06:28.321Z,6.10
2022-11-13T17:07:51.745Z,6.40
2022-11-13T17:09:13.207Z,7.40
2022-11-13T17:10:33.651Z,8.80
2022-11-13T17:11:55.137Z,6.70
2022-11-13T17:13:17.005Z,3.00
2022-11-13T17:14:38.327Z,6.20
2022-11-13T17:16:01.241Z,7.20
2022-11-13T17:17:24.092Z,5.20
2022-11-13T17:18:48.172Z,6.80
2022-11-13T17:20:10.683Z,5.70
2022-11-13T17:21:31.356Z,6.40
2022-11-13T17:22:53.894Z,5.80
2022-11-13T17:24:15.415Z,4.10
2022-11-13T17:25:36.309Z,7.30
2022-11-13T17:26:57.009Z,5.30
2022-11-13T17:28:20.855Z,6.70
2022-11-13T17:29:42.168Z,5.50
2022-11-13T17:31:06.306Z,5.20
2022-11-13T17:32:26.470Z,6.20
2022-11-13T17:33:46.841Z,6.50
2022-11-13T17:35:10.538Z,6.30
2022-11-13T17:36:31.012Z,6.50
2022-11-13T17:37:52.041Z,5.90
2022-11-13T17:39:12.672Z,6.40
2022-11-13T17:40:34.148Z,4.80
2022-11-13T17:41:56.160Z,5.80
2022-11-13T17:43:16.798Z,6.40
2022-11-13T17:44:37.279Z,5.30
2022-11-13T17:45:58.012Z,4.20
2022-11-13T17:47:18.568Z,4.60
2022-11-13T17:48:40.630Z,5.90
2022-11-13T17:50:07.090Z,6.20
2022-11-13T17:51:24.451Z,6.30
2022-11-13T17:52:44.817Z,5.80
2022-11-13T17:54:06.605Z,6.30
2022-11-13T17:55:30.371Z,5.90
2022-11-13T17:56:51.684Z,5.80
2022-11-13T17:58:12.056Z,6.20
2022-11-13T17:59:32.321Z,6.90
2022-11-13T18:00:55.891Z,6.60
2022-11-13T18:02:17.696Z,6.60
2022-11-13T18:03:38.861Z,2.60
2022-11-13T18:04:59.315Z,6.10
2022-11-13T18:06:20.595Z,6.30
2022-11-13T18:07:41.993Z,6.10
2022-11-13T18:09:05.943Z,5.50
2022-11-13T18:10:27.186Z,6.20
2022-11-13T18:11:48.256Z,4.40
2022-11-13T18:13:09.573Z,7.50
2022-11-13T18:14:32.485Z,5.80
2022-11-13T18:15:53.074Z,4.10
2022-11-13T18:17:13.310Z,6.90
2022-11-13T18:18:34.327Z,6.20
2022-11-13T18:20:00.373Z,5.60
2022-11-13T18:21:23.491Z,6.20
2022-11-13T18:22:49.052Z,5.60
2022-11-13T18:24:13.257Z,6.00
2022-11-13T18:25:39.635Z,5.90
2022-11-13T18:27:00.532Z,5.10
2022-11-13T18:28:21.164Z,5.60
2022-11-13T18:29:41.506Z,6.30
2022-11-13T18:31:09.023Z,3.70
2022-11-13T18:32:29.778Z,5.30
2022-11-13T18:33:50.708Z,2.30
2022-11-13T18:35:11.094Z,1.60
2022-11-13T18:36:32.922Z,6.90
2022-11-13T18:37:55.293Z,5.20
2022-11-13T18:39:16.882Z,3.20
2022-11-13T18:40:37.674Z,6.50
2022-11-13T18:41:59.257Z,4.70
2022-11-13T18:43:19.803Z,7.00
2022-11-13T18:44:40.436Z,5.40
2022-11-13T18:46:06.909Z,5.20
2022-11-13T18:47:27.596Z,4.20
2022-11-13T18:48:49.316Z,2.20
2022-11-13T18:50:10.558Z,3.60
2022-11-13T18:51:31.396Z,5.60
2022-11-13T18:52:55.201Z,5.70
2022-11-13T18:54:15.552Z,6.20
2022-11-13T18:55:36.615Z,2.10
2022-11-13T18:56:58.209Z,5.80
2022-11-13T18:58:19.107Z,6.80
2022-11-13T18:59:39.969Z,4.10
2022-11-13T19:01:20.548Z,4.10
2022-11-13T19:02:37.748Z,5.50
2022-11-13T19:05:25.969Z,5.70
2022-11-13T19:06:46.846Z,7.50
2022-11-13T19:08:07.870Z,5.70
2022-11-13T19:09:29.002Z,6.00
2022-11-13T19:10:49.888Z,4.50
2022-11-13T19:12:10.930Z,5.20
2022-11-13T19:13:32.831Z,5.10
2022-11-13T19:14:53.384Z,5.70
2022-11-13T19:16:17.062Z,4.70
2022-11-13T19:17:38.139Z,5.40
2022-11-13T19:19:01.840Z,5.40
2022-11-13T19:20:22.669Z,3.90
2022-11-13T19:21:44.043Z,4.80
2022-11-13T19:23:09.221Z,4.50
2022-11-13T19:24:28.309Z,5.30
2022-11-13T19:25:49.925Z,5.20
2022-11-13T19:27:10.798Z,6.00
2022-11-13T19:28:31.878Z,4.50
2022-11-13T19:29:52.173Z,3.20
2022-11-13T19:31:18.549Z,5.60
2022-11-13T19:32:39.923Z,3.20
2022-11-13T19:34:03.697Z,5.90
2022-11-13T19:35:26.837Z,5.80
2022-11-13T19:36:47.680Z,6.30
2022-11-13T19:38:08.016Z,4.90
2022-11-13T19:39:28.726Z,6.30
2022-11-13T19:40:51.336Z,5.70
2022-11-13T19:42:11.839Z,0.70
2022-11-13T19:43:33.940Z,4.20
2022-11-13T19:44:54.575Z,5.60
2022-11-13T19:46:17.730Z,4.90
2022-11-13T19:47:41.356Z,5.40
2022-11-13T19:49:01.735Z,4.30
2022-11-13T19:50:22.597Z,5.30
2022-11-13T19:51:44.145Z,3.50
2022-11-13T19:53:05.609Z,3.50
2022-11-13T19:54:26.444Z,4.00
2022-11-13T19:55:54.401Z,4.80
2022-11-13T19:57:14.973Z,4.70
2022-11-13T19:58:36.179Z,0.50
2022-11-13T19:59:56.679Z,4.80
2022-11-13T20:01:25.830Z,6.00
2022-11-13T20:02:47.296Z,5.00
2022-11-13T20:04:11.512Z,4.30
2022-11-13T20:05:35.850Z,5.10
2022-11-13T20:06:57.815Z,4.70
2022-11-13T20:09:33.269Z,6.80
2022-11-13T20:10:54.263Z,4.40
2022-11-13T20:12:15.707Z,4.30
2022-11-13T20:13:38.875Z,4.30
2022-11-13T20:14:59.649Z,5.40
2022-11-13T20:16:19.917Z,5.60
2022-11-13T20:17:41.559Z,5.20
2022-11-13T20:19:02.240Z,4.60
2022-11-13T20:20:22.856Z,3.20
2022-11-13T20:21:44.635Z,5.40
2022-11-13T20:23:06.678Z,4.70
2022-11-13T20:24:28.912Z,6.50
2022-11-13T20:25:59.948Z,4.40
2022-11-13T20:27:20.561Z,2.70
2022-11-13T20:28:41.056Z,5.30
2022-11-13T20:30:01.677Z,5.20
2022-11-13T20:31:25.286Z,4.70
2022-11-13T20:32:45.640Z,4.70
2022-11-13T20:34:07.282Z,6.00
2022-11-13T20:35:28.107Z,5.50
2022-11-13T20:36:49.241Z,4.40
2022-11-13T20:38:10.098Z,0.20
2022-11-13T20:39:31.694Z,5.60
2022-11-13T20:40:52.676Z,3.00
2022-11-13T20:42:13.544Z,5.50
2022-11-13T20:43:33.996Z,5.60
2022-11-13T20:44:58.525Z,6.00
2022-11-13T20:46:20.459Z,4.30
2022-11-13T20:47:40.823Z,5.40
2022-11-13T20:49:01.582Z,6.30
2022-11-13T20:50:25.355Z,4.70
2022-11-13T20:51:45.810Z,5.60
2022-11-13T20:53:06.287Z,5.20
2022-11-13T20:54:27.126Z,3.20
2022-11-13T20:56:00.194Z,4.50
2022-11-13T20:57:16.925Z,6.10
2022-11-13T20:58:38.346Z,6.70
2022-11-13T20:59:59.454Z,7.10
2022-11-13T21:01:22.940Z,7.40
2022-11-13T21:02:43.394Z,7.00
2022-11-13T21:04:04.231Z,7.00
2022-11-13T21:05:26.148Z,5.40
2022-11-13T21:06:47.820Z,6.20
2022-11-13T21:08:11.306Z,8.90
2022-11-13T21:09:32.253Z,7.20
2022-11-13T21:10:53.225Z,5.70
2022-11-13T21:12:14.776Z,7.30
2022-11-13T21:13:35.320Z,7.40
2022-11-13T21:14:56.644Z,5.20
2022-11-13T21:16:21.122Z,7.60
2022-11-13T21:17:41.736Z,4.80
2022-11-13T21:19:02.517Z,7.90
2022-11-13T21:20:24.174Z,5.80
2022-11-13T21:21:45.668Z,5.40
2022-11-13T21:23:06.071Z,5.80
2022-11-13T21:24:26.521Z,5.20
2022-11-13T21:25:47.182Z,6.60
2022-11-13T21:27:09.729Z,3.00
2022-11-13T21:28:33.483Z,7.00
2022-11-13T21:29:53.523Z,6.90
2022-11-13T21:31:17.564Z,7.20
2022-11-13T21:32:38.438Z,6.60
2022-11-13T21:33:58.722Z,6.90
2022-11-13T21:35:22.739Z,0.20
2022-11-13T21:36:42.187Z,3.40
2022-11-13T21:38:04.147Z,5.30
2022-11-13T21:39:24.897Z,7.10
2022-11-13T21:40:45.486Z,6.90
2022-11-13T21:42:06.103Z,9.00
2022-11-13T21:43:27.297Z,10.70
2022-11-13T21:44:48.707Z,7.40
2022-11-13T21:46:09.676Z,14.10
2022-11-13T21:47:30.105Z,15.40
2022-11-13T21:48:59.994Z,15.90
2022-11-13T21:50:20.173Z,8.80
2022-11-13T21:51:42.775Z,9.50
2022-11-13T21:53:03.396Z,5.60
2022-11-13T21:54:23.761Z,6.80
2022-11-13T21:55:50.808Z,7.90
2022-11-13T21:57:12.367Z,8.60
2022-11-13T21:58:35.545Z,7.10
2022-11-13T21:59:56.312Z,6.00
2022-11-13T22:01:18.822Z,5.70
2022-11-13T22:02:39.462Z,6.10
2022-11-13T22:04:00.491Z,8.30
2022-11-13T22:05:20.865Z,6.40
2022-11-13T22:06:45.122Z,8.10
2022-11-13T22:08:05.993Z,4.60
2022-11-13T22:09:26.467Z,6.50
2022-11-13T22:10:46.934Z,5.20
2022-11-13T22:12:08.818Z,5.80
2022-11-13T22:13:30.164Z,6.50
2022-11-13T22:14:50.808Z,4.30
2022-11-13T22:16:12.071Z,6.40
2022-11-13T22:17:32.787Z,5.80
2022-11-13T22:18:55.445Z,9.20
2022-11-13T22:20:16.759Z,7.90
2022-11-13T22:21:37.850Z,9.10
2022-11-13T22:22:57.990Z,12.20
2022-11-13T22:24:18.820Z,10.40
2022-11-13T22:25:39.549Z,5.80
2022-11-13T22:26:59.759Z,5.20
2022-11-13T22:28:20.627Z,4.20
2022-11-13T22:29:41.034Z,5.00
2022-11-13T22:31:02.058Z,4.70
2022-11-13T22:32:22.764Z,5.00
2022-11-13T22:33:47.796Z,5.40
2022-11-13T22:35:07.437Z,5.30
2022-11-13T22:36:33.873Z,4.00
2022-11-13T22:37:55.876Z,9.00
2022-11-13T22:39:16.713Z,9.60
2022-11-13T22:40:38.735Z,7.50
2022-11-13T22:41:58.967Z,10.10
2022-11-13T22:43:19.602Z,13.00
2022-11-13T22:44:54.869Z,11.50
2022-11-13T22:46:08.049Z,7.60
2022-11-13T22:47:28.745Z,6.50
2022-11-13T22:48:51.686Z,10.10
2022-11-13T22:50:13.483Z,9.50
2022-11-13T22:51:37.745Z,9.50
2022-11-13T22:52:58.303Z,15.10
2022-11-13T22:54:18.779Z,13.70
2022-11-13T22:55:40.566Z,9.20
2022-11-13T22:57:00.978Z,15.60
2022-11-13T22:58:21.451Z,16.50
2022-11-13T22:59:42.328Z,14.00
2022-11-13T23:01:08.949Z,17.60
2022-11-13T23:02:29.050Z,18.00
2022-11-13T23:03:50.983Z,16.90
2022-11-13T23:05:11.895Z,14.10
2022-11-13T23:06:34.822Z,13.70
2022-11-13T23:07:54.987Z,11.40
2022-11-13T23:09:15.622Z,11.10
2022-11-13T23:10:36.185Z,11.40
2022-11-13T23:11:56.751Z,13.10
2022-11-13T23:13:17.296Z,15.00
2022-11-13T23:14:37.807Z,15.10
2022-11-13T23:15:58.724Z,14.50
2022-11-13T23:17:18.893Z,14.60
2022-11-13T23:18:40.373Z,10.50
2022-11-13T23:20:01.245Z,12.60
2022-11-13T23:21:23.493Z,16.60
2022-11-13T23:22:43.803Z,9.20
2022-11-13T23:24:04.846Z,11.80
2022-11-13T23:25:25.742Z,5.40
2022-11-13T23:26:46.449Z,12.40
2022-11-13T23:28:06.884Z,7.10
2022-11-13T23:29:27.280Z,11.00
2022-11-13T23:30:48.306Z,10.60
2022-11-13T23:32:09.202Z,9.50
2022-11-13T23:33:30.428Z,8.60
2022-11-13T23:34:59.838Z,8.20
2022-11-13T23:36:14.473Z,7.30
2022-11-13T23:37:35.202Z,11.10
2022-11-13T23:38:55.828Z,12.30
2022-11-13T23:40:16.519Z,11.40
2022-11-13T23:41:36.851Z,16.90
2022-11-13T23:42:57.580Z,15.90
2022-11-13T23:44:18.292Z,18.30
2022-11-13T23:45:38.847Z,12.30
2022-11-13T23:46:59.850Z,7.10
2022-11-13T23:48:21.896Z,7.80
2022-11-13T23:49:42.375Z,7.20
2022-11-13T23:51:03.952Z,7.60
2022-11-13T23:52:24.419Z,5.30
2022-11-13T23:53:45.464Z,5.90
2022-11-13T23:55:07.250Z,7.60
2022-11-13T23:56:28.157Z,6.60
2022-11-13T23:57:57.183Z,7.70